Time;durP1;ratioP1;P1;durP2;ratioP2;P2;SDS_P1;SDS_P2;PMS_P1;PMS_P2;Temp;Humidity;BMP_temperature;BMP_pressure;BME280_temperature;BME280_humidity;BME280_pressure;Samples;Min_cycle;Max_cycle;Signal;HPM_P1;HPM_P2
2021/04/27 00:00:11;;;;;;;8.15;5.57;;;5.50;54.70;;;;;;5048429;28;20052;-76
2021/04/27 00:02:37;;;;;;;7.85;5.30;;;5.40;54.70;;;;;;5015625;28;20024;-77
2021/04/27 00:05:03;;;;;;;10.40;5.75;;;5.40;54.80;;;;;;5037077;28;20027;-76
2021/04/27 00:07:29;;;;;;;13.18;5.72;;;5.40;54.70;;;;;;5049259;28;20025;-76
2021/04/27 00:09:55;;;;;;;15.05;6.80;;;5.30;55.00;;;;;;5033955;28;20028;-76
2021/04/27 00:12:21;;;;;;;8.07;5.75;;;5.50;54.80;;;;;;5038513;28;20542;-76
2021/04/27 00:14:47;;;;;;;11.75;6.57;;;5.50;54.60;;;;;;5070036;28;20021;-77
2021/04/27 00:17:12;;;;;;;9.95;5.75;;;5.50;54.70;;;;;;5033385;28;20032;-76
2021/04/27 00:19:38;;;;;;;10.68;5.97;;;5.50;54.60;;;;;;5050181;28;20032;-76
2021/04/27 00:22:03;;;;;;;14.43;6.45;;;5.50;54.50;;;;;;5031807;28;20120;-78
2021/04/27 00:24:31;;;;;;;11.18;6.20;;;5.50;54.60;;;;;;5049923;28;20227;-76
2021/04/27 00:26:57;;;;;;;10.70;6.20;;;5.50;54.10;;;;;;5030312;28;20033;-76
2021/04/27 00:29:23;;;;;;;8.23;5.95;;;5.40;54.20;;;;;;5034144;28;20040;-76
2021/04/27 00:31:48;;;;;;;9.52;6.32;;;5.30;54.80;;;;;;5046626;28;20596;-76
2021/04/27 00:34:14;;;;;;;9.50;6.15;;;5.30;54.60;;;;;;5050232;28;20024;-76
2021/04/27 00:36:39;;;;;;;10.55;6.28;;;5.30;54.90;;;;;;5027232;28;20439;-76
2021/04/27 00:39:05;;;;;;;10.65;6.57;;;5.10;55.20;;;;;;5047558;28;20073;-76
2021/04/27 00:41:31;;;;;;;11.25;6.65;;;5.00;55.40;;;;;;5018328;28;20044;-76
2021/04/27 00:43:56;;;;;;;10.50;5.88;;;4.90;56.00;;;;;;5026466;28;20037;-76
2021/04/27 00:46:22;;;;;;;10.57;6.63;;;4.60;56.80;;;;;;5049970;28;20044;-76
2021/04/27 00:48:48;;;;;;;13.95;6.80;;;4.60;57.20;;;;;;5045444;28;20464;-76
2021/04/27 00:51:13;;;;;;;8.93;5.82;;;4.70;56.90;;;;;;5019063;28;20024;-75
2021/04/27 00:53:39;;;;;;;11.43;6.50;;;4.60;56.70;;;;;;5050776;28;20108;-77
2021/04/27 00:56:04;;;;;;;11.88;6.68;;;4.60;57.00;;;;;;5028976;28;20090;-76
2021/04/27 00:58:31;;;;;;;11.65;6.40;;;4.80;56.60;;;;;;5023096;28;20048;-76
2021/04/27 01:00:56;;;;;;;9.52;6.72;;;4.90;55.20;;;;;;5029768;28;20062;-76
2021/04/27 01:03:23;;;;;;;11.93;7.15;;;4.90;55.10;;;;;;5047858;28;20064;-76
2021/04/27 01:05:48;;;;;;;9.63;6.65;;;4.80;55.80;;;;;;5044588;28;20809;-76
2021/04/27 01:08:31;;;;;;;10.63;6.70;;;4.70;55.90;;;;;;5047682;28;20484;-77
2021/04/27 01:11:22;;;;;;;13.80;7.45;;;4.70;55.90;;;;;;5032770;28;20028;-77
2021/04/27 01:13:50;;;;;;;13.38;7.43;;;4.70;55.50;;;;;;5044648;28;20025;-76
2021/04/27 01:16:16;;;;;;;12.52;6.63;;;4.70;56.00;;;;;;5034631;28;20119;-76
2021/04/27 01:18:43;;;;;;;14.85;7.03;;;4.50;56.80;;;;;;5033297;28;20120;-76
2021/04/27 01:21:09;;;;;;;10.52;6.63;;;4.30;57.60;;;;;;5030550;28;20102;-75
2021/04/27 01:23:38;;;;;;;18.63;7.10;;;4.30;58.10;;;;;;5050294;28;20041;-75
2021/04/27 01:26:07;;;;;;;10.35;7.25;;;4.20;57.90;;;;;;5050141;28;20024;-76
2021/04/27 01:28:33;;;;;;;12.98;7.38;;;4.00;58.80;;;;;;5033577;28;20124;-75
2021/04/27 01:30:59;;;;;;;13.38;7.28;;;4.10;59.00;;;;;;5015760;28;20111;-75
2021/04/27 01:33:28;;;;;;;11.50;6.75;;;4.00;58.70;;;;;;5030758;28;20028;-76
2021/04/27 01:35:54;;;;;;;11.35;7.28;;;4.00;58.80;;;;;;5016088;28;20029;-76
2021/04/27 01:38:20;;;;;;;12.38;6.82;;;3.90;59.10;;;;;;5032587;28;20038;-76
2021/04/27 01:40:46;;;;;;;8.98;6.78;;;3.80;59.60;;;;;;5020419;28;20028;-76
2021/04/27 01:43:11;;;;;;;8.30;6.45;;;3.80;59.30;;;;;;5046042;28;20041;-76
2021/04/27 01:45:37;;;;;;;13.13;7.18;;;3.80;59.50;;;;;;5052588;28;20028;-75
2021/04/27 01:48:03;;;;;;;11.80;7.53;;;3.60;59.70;;;;;;5052235;28;20040;-76
2021/04/27 01:50:29;;;;;;;10.35;8.25;;;3.60;60.60;;;;;;5032650;28;20032;-75
2021/04/27 01:52:55;;;;;;;9.65;7.53;;;3.60;60.30;;;;;;5047472;28;20036;-76
2021/04/27 01:55:21;;;;;;;12.52;6.93;;;3.30;60.80;;;;;;5053119;28;20047;-77
2021/04/27 01:57:46;;;;;;;16.58;7.55;;;3.20;61.70;;;;;;5015636;28;20067;-75
2021/04/27 02:00:13;;;;;;;12.23;7.82;;;3.30;62.40;;;;;;5032401;28;20033;-75
2021/04/27 02:02:39;;;;;;;10.88;8.40;;;3.60;60.30;;;;;;5032876;28;20549;-75
2021/04/27 02:05:06;;;;;;;12.80;8.05;;;3.40;60.60;;;;;;5039115;28;20592;-75
2021/04/27 02:07:33;;;;;;;12.80;7.60;;;3.30;62.40;;;;;;5016588;28;20539;-75
2021/04/27 02:10:03;;;;;;;13.82;7.85;;;3.50;60.40;;;;;;5031660;28;20028;-75
2021/04/27 02:12:29;;;;;;;13.73;8.30;;;3.50;60.50;;;;;;5035269;28;20056;-75
2021/04/27 02:14:54;;;;;;;16.45;8.48;;;3.40;60.40;;;;;;5018529;28;20040;-75
2021/04/27 02:17:26;;;;;;;13.00;7.15;;;3.00;62.60;;;;;;5035656;28;20108;-75
2021/04/27 02:19:51;;;;;;;13.45;7.90;;;2.90;64.00;;;;;;5032322;28;20442;-75
2021/04/27 02:22:17;;;;;;;11.18;7.90;;;2.90;64.30;;;;;;5031984;28;20025;-76
2021/04/27 02:24:43;;;;;;;13.00;8.98;;;3.10;63.00;;;;;;5017458;28;20037;-75
2021/04/27 02:27:11;;;;;;;14.63;8.57;;;3.20;62.70;;;;;;5022921;28;20037;-75
2021/04/27 02:29:37;;;;;;;13.85;8.65;;;3.20;61.80;;;;;;5044522;28;20036;-76
2021/04/27 02:32:02;;;;;;;15.90;8.13;;;3.30;62.60;;;;;;5022233;28;20063;-75
2021/04/27 02:34:28;;;;;;;14.55;8.75;;;3.30;62.40;;;;;;5050404;28;20109;-74
2021/04/27 02:36:54;;;;;;;12.70;9.23;;;3.20;63.70;;;;;;5035545;28;20032;-75
2021/04/27 02:39:19;;;;;;;10.77;7.53;;;3.10;64.60;;;;;;5053134;28;20047;-75
2021/04/27 02:41:45;;;;;;;14.13;8.68;;;3.00;65.70;;;;;;5030467;28;20391;-75
2021/04/27 02:44:11;;;;;;;11.52;8.75;;;2.90;66.10;;;;;;5050075;28;20026;-74
2021/04/27 02:46:36;;;;;;;10.43;8.05;;;2.90;67.10;;;;;;5053080;28;20442;-78
2021/04/27 02:49:05;;;;;;;15.45;8.35;;;2.70;67.80;;;;;;5016379;28;20082;-78
2021/04/27 02:51:31;;;;;;;17.05;9.25;;;2.60;68.50;;;;;;5033507;28;20032;-78
2021/04/27 02:53:57;;;;;;;15.80;8.45;;;2.60;68.70;;;;;;5019342;28;20040;-77
2021/04/27 02:56:23;;;;;;;15.25;9.23;;;2.60;68.40;;;;;;5035165;28;20043;-77
2021/04/27 02:58:48;;;;;;;10.18;7.60;;;2.50;68.10;;;;;;5039682;28;20326;-78
2021/04/27 03:01:14;;;;;;;12.15;8.65;;;2.50;70.40;;;;;;5069025;28;20055;-78
2021/04/27 03:03:40;;;;;;;12.32;8.57;;;2.40;69.80;;;;;;5069991;28;20495;-78
2021/04/27 03:06:06;;;;;;;13.25;8.35;;;2.30;69.80;;;;;;5019453;28;20415;-78
2021/04/27 03:08:31;;;;;;;14.27;9.35;;;2.10;71.60;;;;;;5036928;28;20036;-78
2021/04/27 03:10:57;;;;;;;16.08;8.85;;;2.20;71.60;;;;;;5045801;28;20048;-77
2021/04/27 03:13:22;;;;;;;21.85;9.07;;;2.20;72.60;;;;;;5050565;28;20029;-78
2021/04/27 03:15:48;;;;;;;16.40;9.20;;;2.20;72.20;;;;;;5014210;28;20033;-77
2021/04/27 03:18:14;;;;;;;13.27;8.82;;;2.10;73.30;;;;;;5053270;28;20399;-77
2021/04/27 03:20:42;;;;;;;14.57;8.98;;;2.10;73.40;;;;;;5034342;28;20032;-78
2021/04/27 03:23:08;;;;;;;14.35;9.02;;;2.20;74.40;;;;;;5035628;28;20040;-78
2021/04/27 03:25:33;;;;;;;18.90;8.77;;;2.40;72.10;;;;;;5030888;28;20032;-78
2021/04/27 03:27:59;;;;;;;12.60;8.27;;;2.10;74.80;;;;;;5029369;28;20428;-78
2021/04/27 03:30:25;;;;;;;17.02;8.80;;;2.20;75.20;;;;;;5033586;28;20028;-78
2021/04/27 03:32:50;;;;;;;17.00;8.25;;;2.10;75.20;;;;;;5047966;28;20385;-78
2021/04/27 03:35:16;;;;;;;11.13;8.00;;;2.00;77.60;;;;;;5032899;28;20016;-78
2021/04/27 03:37:41;;;;;;;15.77;8.60;;;2.10;76.50;;;;;;5049465;28;20379;-77
2021/04/27 03:40:07;;;;;;;16.40;8.25;;;2.00;77.30;;;;;;5019807;28;20040;-77
2021/04/27 03:42:33;;;;;;;11.07;7.22;;;2.00;77.10;;;;;;5048755;28;20036;-78
2021/04/27 03:44:58;;;;;;;12.60;8.07;;;2.00;77.70;;;;;;5023750;28;20028;-78
2021/04/27 03:47:24;;;;;;;13.90;7.35;;;2.00;76.60;;;;;;5014171;28;20059;-78
2021/04/27 03:49:49;;;;;;;12.40;7.25;;;1.90;78.00;;;;;;5017799;28;20384;-78
2021/04/27 03:52:15;;;;;;;12.70;8.15;;;1.80;77.70;;;;;;5032094;28;20032;-78
2021/04/27 03:54:41;;;;;;;14.50;8.50;;;1.80;77.90;;;;;;5050373;28;20039;-77
2021/04/27 03:57:06;;;;;;;13.77;8.65;;;1.80;77.70;;;;;;5033793;28;20058;-77
2021/04/27 03:59:32;;;;;;;11.43;8.13;;;1.70;78.10;;;;;;5032956;28;20491;-77
2021/04/27 04:01:58;;;;;;;14.52;8.00;;;1.80;78.60;;;;;;5018241;28;20069;-78
2021/04/27 04:04:23;;;;;;;12.10;8.13;;;2.00;76.80;;;;;;5034220;28;20051;-78
2021/04/27 04:06:49;;;;;;;14.85;8.77;;;2.10;76.40;;;;;;5017413;28;20028;-78
2021/04/27 04:09:14;;;;;;;15.13;8.77;;;2.10;76.70;;;;;;5068394;28;20035;-77
2021/04/27 04:11:40;;;;;;;14.38;8.77;;;2.00;76.80;;;;;;5052199;28;20053;-78
2021/04/27 04:14:05;;;;;;;11.95;8.43;;;2.10;75.40;;;;;;5045011;28;20505;-78
2021/04/27 04:16:31;;;;;;;15.77;8.88;;;2.10;75.90;;;;;;5034254;28;20069;-77
2021/04/27 04:18:57;;;;;;;18.67;9.02;;;1.80;76.40;;;;;;5068737;28;20040;-78
2021/04/27 04:21:23;;;;;;;15.27;9.85;;;1.70;78.10;;;;;;5048186;28;20036;-77
2021/04/27 04:23:49;;;;;;;18.33;9.45;;;1.90;77.10;;;;;;5027263;28;20039;-77
2021/04/27 04:26:15;;;;;;;13.90;9.00;;;1.80;77.20;;;;;;5020456;28;20391;-77
2021/04/27 04:28:41;;;;;;;17.23;9.80;;;1.90;76.50;;;;;;5029488;28;20044;-77
2021/04/27 04:31:06;;;;;;;16.35;8.55;;;1.90;75.40;;;;;;5037799;28;20511;-77
2021/04/27 04:33:32;;;;;;;12.40;8.68;;;1.80;77.30;;;;;;5024348;28;20111;-76
2021/04/27 04:35:58;;;;;;;13.45;7.85;;;1.70;77.50;;;;;;5032706;28;20069;-77
2021/04/27 04:38:23;;;;;;;14.82;8.80;;;1.80;78.90;;;;;;5049993;28;20114;-77
2021/04/27 04:40:49;;;;;;;14.13;8.65;;;1.80;79.00;;;;;;5017506;28;20032;-77
2021/04/27 04:43:16;;;;;;;10.82;8.95;;;1.80;80.10;;;;;;5029653;28;20275;-77
2021/04/27 04:45:42;;;;;;;14.07;8.23;;;2.00;77.80;;;;;;5049526;28;20024;-77
2021/04/27 04:48:07;;;;;;;11.05;7.55;;;2.10;78.80;;;;;;5046811;28;20059;-76
2021/04/27 04:50:33;;;;;;;12.13;7.38;;;2.00;79.00;;;;;;5049814;28;20506;-77
2021/04/27 04:52:58;;;;;;;12.35;7.85;;;2.00;79.30;;;;;;5000511;28;20033;-76
2021/04/27 04:55:24;;;;;;;12.07;7.82;;;2.10;79.10;;;;;;5008514;28;20226;-77
2021/04/27 04:57:50;;;;;;;16.95;8.07;;;2.30;78.90;;;;;;5010599;28;20119;-77
2021/04/27 05:00:17;;;;;;;17.45;7.50;;;2.30;78.40;;;;;;5009795;28;20079;-77
2021/04/27 05:02:42;;;;;;;9.32;6.68;;;2.40;78.70;;;;;;5047990;28;20032;-77
2021/04/27 05:05:09;;;;;;;12.18;7.88;;;2.50;78.70;;;;;;5044369;28;20025;-77
2021/04/27 05:07:42;;;;;;;14.68;8.15;;;2.60;78.30;;;;;;5032490;28;20100;-78
2021/04/27 05:10:08;;;;;;;13.90;7.88;;;2.70;78.70;;;;;;5048284;28;20036;-78
2021/04/27 05:12:33;;;;;;;16.30;8.20;;;2.90;78.50;;;;;;5047405;28;20029;-77
2021/04/27 05:14:59;;;;;;;16.75;7.78;;;2.90;78.50;;;;;;5030873;28;20632;-77
2021/04/27 05:17:24;;;;;;;13.10;7.10;;;3.10;78.40;;;;;;5054590;28;20021;-77
2021/04/27 05:19:50;;;;;;;11.32;8.10;;;3.30;77.90;;;;;;5017539;28;20036;-77
2021/04/27 05:22:16;;;;;;;12.63;7.40;;;3.40;77.90;;;;;;5075675;28;20032;-76
2021/04/27 05:24:41;;;;;;;13.13;7.43;;;3.50;77.30;;;;;;5050779;28;20423;-77
2021/04/27 05:27:07;;;;;;;17.98;7.70;;;3.70;76.90;;;;;;5048703;28;20046;-76
2021/04/27 05:29:32;;;;;;;12.90;7.68;;;3.80;76.90;;;;;;5043694;28;20040;-77
2021/04/27 05:31:59;;;;;;;11.57;6.85;;;3.90;77.30;;;;;;5032905;28;20036;-76
2021/04/27 05:34:26;;;;;;;13.13;7.63;;;3.90;76.20;;;;;;5022841;28;20137;-76
2021/04/27 05:36:52;;;;;;;9.05;6.15;;;4.00;76.60;;;;;;5048358;28;20028;-76
2021/04/27 05:39:18;;;;;;;10.00;6.00;;;4.20;76.40;;;;;;5018488;28;20508;-76
2021/04/27 05:41:44;;;;;;;19.70;8.00;;;4.40;76.20;;;;;;5017211;28;20411;-77
2021/04/27 05:44:09;;;;;;;14.15;7.00;;;4.50;76.00;;;;;;5023595;28;20048;-77
2021/04/27 05:46:36;;;;;;;10.90;6.43;;;4.70;75.90;;;;;;5015361;28;20526;-77
2021/04/27 05:49:02;;;;;;;8.48;5.72;;;4.80;76.10;;;;;;5035821;28;20120;-77
2021/04/27 05:51:28;;;;;;;7.10;5.45;;;4.90;75.50;;;;;;5053655;28;20115;-76
2021/04/27 05:53:53;;;;;;;11.90;6.20;;;5.00;75.10;;;;;;5047733;28;20032;-78
2021/04/27 05:56:19;;;;;;;10.65;6.22;;;5.20;75.50;;;;;;5039037;28;20040;-76
2021/04/27 05:58:44;;;;;;;9.85;5.97;;;5.40;74.60;;;;;;5026545;28;20036;-77
2021/04/27 06:01:11;;;;;;;11.75;6.35;;;5.60;74.30;;;;;;5017998;28;20025;-77
2021/04/27 06:03:37;;;;;;;9.77;6.47;;;5.80;73.70;;;;;;5036317;28;20725;-77
2021/04/27 06:06:02;;;;;;;8.20;5.88;;;5.90;73.50;;;;;;5036288;28;20067;-77
2021/04/27 06:08:29;;;;;;;10.02;5.40;;;6.10;73.40;;;;;;5053381;28;20035;-76
2021/04/27 06:10:55;;;;;;;9.45;5.15;;;6.20;72.90;;;;;;5034933;28;20105;-76
2021/04/27 06:13:21;;;;;;;7.72;4.95;;;6.40;69.10;;;;;;5033424;28;20159;-77
2021/04/27 06:15:46;;;;;;;10.30;5.22;;;6.50;71.80;;;;;;5033052;28;20032;-77
2021/04/27 06:18:12;;;;;;;14.18;5.60;;;6.70;69.20;;;;;;5021607;28;20484;-77
2021/04/27 06:20:37;;;;;;;9.57;5.70;;;6.80;71.30;;;;;;5051817;28;20546;-77
2021/04/27 06:23:03;;;;;;;8.32;5.57;;;7.00;69.80;;;;;;5046862;28;20032;-77
2021/04/27 06:25:28;;;;;;;10.02;5.75;;;7.10;69.70;;;;;;5031636;28;20037;-77
2021/04/27 06:27:54;;;;;;;6.32;4.68;;;7.30;71.00;;;;;;5067448;28;20032;-77
2021/04/27 06:30:22;;;;;;;8.10;4.97;;;7.50;70.50;;;;;;5032614;28;20032;-77
2021/04/27 06:32:48;;;;;;;6.57;4.57;;;7.60;69.80;;;;;;5029793;28;20039;-76
2021/04/27 06:35:14;;;;;;;6.72;4.47;;;7.80;70.10;;;;;;5051178;28;20603;-77
2021/04/27 06:37:40;;;;;;;10.68;4.75;;;7.90;70.40;;;;;;5018480;28;20422;-77
2021/04/27 06:40:06;;;;;;;8.65;3.55;;;8.10;70.40;;;;;;5017162;28;20066;-77
2021/04/27 06:42:32;;;;;;;8.90;3.90;;;8.20;69.90;;;;;;5034856;28;20038;-76
2021/04/27 06:44:57;;;;;;;7.63;3.60;;;8.40;69.50;;;;;;5032823;28;20395;-77
2021/04/27 06:47:23;;;;;;;9.23;3.72;;;8.50;69.00;;;;;;5036863;28;20537;-77
2021/04/27 06:49:49;;;;;;;6.70;3.88;;;8.60;69.70;;;;;;5065456;28;20648;-77
2021/04/27 06:52:15;;;;;;;15.32;4.43;;;8.80;69.10;;;;;;5052042;28;20030;-77
2021/04/27 06:54:41;;;;;;;6.40;3.28;;;9.00;68.10;;;;;;5030133;28;20473;-77
2021/04/27 06:57:06;;;;;;;6.22;3.20;;;9.10;63.20;;;;;;5069822;28;20041;-76
2021/04/27 06:59:32;;;;;;;10.25;3.38;;;9.30;63.10;;;;;;5049770;28;20036;-77
2021/04/27 07:02:01;;;;;;;6.18;2.95;;;9.40;63.10;;;;;;5032624;28;20028;-77
2021/04/27 07:04:27;;;;;;;6.95;3.17;;;9.60;66.40;;;;;;5045776;28;20538;-77
2021/04/27 07:06:53;;;;;;;4.00;2.85;;;9.60;64.80;;;;;;5068927;28;20081;-76
2021/04/27 07:09:19;;;;;;;8.70;3.38;;;9.80;64.50;;;;;;5070304;28;20032;-77
2021/04/27 07:11:44;;;;;;;6.55;3.20;;;10.00;62.20;;;;;;5019137;28;20032;-76
2021/04/27 07:14:10;;;;;;;6.10;2.70;;;10.10;61.40;;;;;;5028083;28;20047;-77
2021/04/27 07:16:35;;;;;;;3.70;2.70;;;10.30;59.80;;;;;;5050516;28;20116;-77
2021/04/27 07:19:01;;;;;;;3.20;2.38;;;10.50;59.80;;;;;;5013430;28;20542;-77
2021/04/27 07:21:27;;;;;;;5.97;2.97;;;10.60;57.80;;;;;;5036469;28;20037;-78
2021/04/27 07:23:52;;;;;;;4.20;2.65;;;10.70;59.70;;;;;;5012651;28;20033;-77
2021/04/27 07:26:18;;;;;;;3.92;2.75;;;10.70;59.80;;;;;;5045552;28;20028;-77
2021/04/27 07:28:43;;;;;;;5.88;2.80;;;10.90;54.90;;;;;;5017592;28;20443;-78
2021/04/27 07:31:09;;;;;;;5.00;2.42;;;11.20;56.90;;;;;;5031575;28;20054;-77
2021/04/27 07:33:34;;;;;;;3.63;2.80;;;11.20;57.90;;;;;;5034724;28;20424;-77
2021/04/27 07:36:00;;;;;;;7.22;3.00;;;11.30;58.10;;;;;;5013553;28;20117;-77
2021/04/27 07:38:25;;;;;;;4.50;3.15;;;11.50;57.60;;;;;;5032395;28;20055;-78
2021/04/27 07:40:51;;;;;;;9.15;3.05;;;11.60;55.00;;;;;;5044625;28;20048;-77
2021/04/27 07:43:16;;;;;;;5.00;2.83;;;11.80;57.30;;;;;;5047237;28;20431;-77
2021/04/27 07:45:42;;;;;;;3.90;2.30;;;11.90;52.00;;;;;;5032964;28;20472;-77
2021/04/27 07:48:08;;;;;;;4.05;2.85;;;12.20;54.40;;;;;;5037433;28;20029;-78
2021/04/27 07:50:34;;;;;;;6.18;2.63;;;12.30;55.40;;;;;;5026046;28;20094;-78
2021/04/27 07:52:59;;;;;;;6.28;2.53;;;12.30;54.30;;;;;;5033308;28;20431;-77
2021/04/27 07:55:26;;;;;;;5.20;2.58;;;12.50;54.40;;;;;;5033855;28;20352;-77
2021/04/27 07:57:51;;;;;;;4.60;2.40;;;12.60;54.60;;;;;;5029631;28;20092;-78
2021/04/27 08:00:18;;;;;;;4.82;3.00;;;12.70;55.10;;;;;;5030135;28;20154;-78
2021/04/27 08:02:43;;;;;;;6.30;2.83;;;12.80;51.70;;;;;;5029581;28;20060;-78
2021/04/27 08:05:10;;;;;;;7.03;2.60;;;12.80;50.50;;;;;;5017048;28;20569;-78
2021/04/27 08:07:35;;;;;;;6.97;2.05;;;12.90;51.00;;;;;;5050074;28;20054;-77
2021/04/27 08:10:01;;;;;;;7.20;2.35;;;13.00;52.40;;;;;;5031785;28;20110;-78
2021/04/27 08:12:27;;;;;;;5.53;2.20;;;13.10;50.10;;;;;;5036305;28;20387;-78
2021/04/27 08:14:52;;;;;;;7.75;2.35;;;13.20;50.60;;;;;;5019318;28;20142;-77
2021/04/27 08:17:18;;;;;;;6.00;2.70;;;13.30;49.40;;;;;;5033188;28;20028;-78
2021/04/27 08:19:43;;;;;;;5.38;2.40;;;13.40;48.90;;;;;;5019348;28;20409;-77
2021/04/27 08:22:09;;;;;;;3.33;2.05;;;13.40;48.40;;;;;;5016442;28;20123;-78
2021/04/27 08:24:35;;;;;;;6.28;2.30;;;13.50;48.00;;;;;;5015459;28;20035;-77
2021/04/27 08:27:01;;;;;;;7.78;2.40;;;13.70;48.70;;;;;;5027067;28;20028;-78
2021/04/27 08:29:26;;;;;;;2.65;1.60;;;13.80;49.00;;;;;;5036733;28;20029;-78
2021/04/27 08:31:52;;;;;;;5.13;2.03;;;14.10;47.60;;;;;;5030545;28;20043;-78
2021/04/27 08:34:17;;;;;;;4.47;2.75;;;14.10;48.50;;;;;;5039836;28;20140;-78
2021/04/27 08:36:43;;;;;;;4.05;2.35;;;14.20;47.80;;;;;;5033541;28;20777;-77
2021/04/27 08:39:08;;;;;;;5.85;2.30;;;14.20;46.20;;;;;;5018703;28;20033;-77
2021/04/27 08:41:34;;;;;;;5.40;2.08;;;14.30;45.30;;;;;;5034222;28;20111;-77
2021/04/27 08:44:00;;;;;;;4.72;2.00;;;14.50;46.20;;;;;;5019359;28;20483;-77
2021/04/27 08:46:26;;;;;;;4.80;2.03;;;15.90;42.50;;;;;;5017409;28;20028;-78
2021/04/27 08:48:52;;;;;;;5.57;2.13;;;15.70;43.80;;;;;;5019370;28;20033;-78
2021/04/27 08:51:18;;;;;;;3.83;1.80;;;15.20;44.60;;;;;;5036770;28;20475;-78
2021/04/27 08:53:43;;;;;;;7.47;2.95;;;15.10;45.60;;;;;;5024283;28;20059;-77
2021/04/27 08:56:12;;;;;;;4.60;2.30;;;15.10;45.90;;;;;;5029927;28;20490;-77
2021/04/27 08:58:37;;;;;;;2.05;1.65;;;15.10;45.30;;;;;;5030475;28;20043;-78
2021/04/27 09:01:03;;;;;;;3.20;1.85;;;15.60;42.10;;;;;;5017545;28;20017;-78
2021/04/27 09:03:43;;;;;;;3.70;2.17;;;15.80;43.30;;;;;;5032358;28;20467;-78
2021/04/27 09:06:13;;;;;;;2.38;1.90;;;15.70;42.70;;;;;;5049704;28;20051;-78
2021/04/27 09:08:40;;;;;;;5.10;1.80;;;15.90;42.10;;;;;;5045777;28;20029;-78
2021/04/27 09:11:26;;;;;;;1.95;1.67;;;16.80;42.10;;;;;;5046785;28;20040;-79
2021/04/27 09:14:11;;;;;;;4.03;1.50;;;16.50;43.40;;;;;;5029297;28;20147;-79
2021/04/27 09:17:01;;;;;;;5.32;2.03;;;16.10;42.50;;;;;;5069778;28;20097;-79
2021/04/27 09:19:33;;;;;;;3.72;2.00;;;16.20;42.90;;;;;;5032833;28;20115;-78
2021/04/27 09:22:06;;;;;;;2.95;1.77;;;16.70;42.90;;;;;;5033353;28;20082;-79
2021/04/27 09:24:36;;;;;;;4.47;1.85;;;17.10;39.70;;;;;;5034634;28;20301;-79
2021/04/27 09:27:02;;;;;;;1.80;1.70;;;17.00;41.40;;;;;;5033195;28;20043;-79
2021/04/27 09:29:41;;;;;;;4.18;1.63;;;16.90;40.30;;;;;;5035057;28;20418;-79
2021/04/27 09:32:07;;;;;;;4.25;1.95;;;16.90;41.50;;;;;;5036302;28;20043;-78
2021/04/27 09:34:35;;;;;;;4.45;1.90;;;17.00;40.70;;;;;;5017167;28;20430;-79
2021/04/27 09:37:04;;;;;;;4.63;2.35;;;17.00;42.50;;;;;;5048483;28;20033;-79
2021/04/27 09:39:41;;;;;;;6.97;1.92;;;17.70;40.30;;;;;;5031422;28;20116;-79
2021/04/27 09:42:08;;;;;;;3.40;2.03;;;17.70;40.20;;;;;;5054071;28;20046;-79
2021/04/27 09:44:44;;;;;;;4.57;2.20;;;17.40;38.90;;;;;;5046162;28;20128;-79
2021/04/27 09:47:14;;;;;;;2.70;1.75;;;17.40;39.60;;;;;;5035052;28;20033;-79
2021/04/27 09:49:40;;;;;;;2.67;2.13;;;17.70;39.30;;;;;;5032902;28;20066;-79
2021/04/27 09:52:07;;;;;;;5.95;2.65;;;17.70;40.20;;;;;;5031716;28;20447;-80
2021/04/27 09:54:33;;;;;;;4.35;2.13;;;18.00;39.60;;;;;;5033605;28;20032;-79
2021/04/27 09:56:59;;;;;;;3.83;2.38;;;17.80;38.70;;;;;;5016114;28;20035;-78
2021/04/27 09:59:28;;;;;;;2.92;2.40;;;17.80;37.20;;;;;;5045595;28;20035;-78
2021/04/27 10:02:00;;;;;;;4.18;1.90;;;17.70;37.10;;;;;;5050056;28;20059;-78
2021/04/27 10:04:26;;;;;;;4.50;1.90;;;17.80;38.60;;;;;;5052622;28;20051;-79
2021/04/27 10:06:52;;;;;;;4.18;1.42;;;18.70;36.50;;;;;;5021718;28;20071;-78
2021/04/27 10:09:18;;;;;;;5.35;1.90;;;18.80;37.40;;;;;;5022041;28;20142;-81
2021/04/27 10:11:44;;;;;;;5.38;2.60;;;18.40;37.50;;;;;;5018799;28;20032;-78
2021/04/27 10:14:10;;;;;;;2.83;1.90;;;18.50;35.60;;;;;;5022037;28;20124;-80
2021/04/27 10:16:36;;;;;;;5.50;2.35;;;18.40;34.80;;;;;;5032147;28;20480;-78
2021/04/27 10:19:03;;;;;;;2.88;2.08;;;18.50;36.70;;;;;;5038357;28;20068;-79
2021/04/27 10:21:29;;;;;;;3.03;1.77;;;18.80;36.10;;;;;;5034557;28;20357;-78
2021/04/27 10:23:58;;;;;;;3.83;2.00;;;18.60;36.40;;;;;;5035449;28;20111;-79
2021/04/27 10:26:24;;;;;;;2.78;2.10;;;19.70;34.90;;;;;;5021668;28;20056;-78
2021/04/27 10:29:22;;;;;;;3.33;2.22;;;19.30;35.80;;;;;;5034491;28;20131;-78
2021/04/27 10:32:08;;;;;;;2.90;2.00;;;19.50;35.40;;;;;;5053217;28;20036;-80
2021/04/27 10:34:34;;;;;;;2.42;2.03;;;19.00;35.10;;;;;;5051993;28;20372;-78
2021/04/27 10:36:59;;;;;;;2.33;1.80;;;19.00;36.60;;;;;;5033217;28;20043;-78
2021/04/27 10:39:47;;;;;;;3.47;2.05;;;19.70;36.60;;;;;;5070688;28;20142;-78
2021/04/27 10:42:24;;;;;;;4.22;1.70;;;20.50;33.60;;;;;;5047048;28;20037;-78
2021/04/27 10:45:02;;;;;;;2.40;2.20;;;22.80;29.60;;;;;;5029293;28;20039;-77
2021/04/27 10:47:30;;;;;;;2.13;1.88;;;22.60;29.10;;;;;;5018873;28;20028;-77
2021/04/27 10:49:56;;;;;;;4.43;2.20;;;20.90;33.40;;;;;;5019205;28;20048;-77
2021/04/27 10:52:32;;;;;;;3.10;2.13;;;20.40;34.00;;;;;;5039285;28;20058;-77
2021/04/27 10:55:33;;;;;;;6.22;2.05;;;20.10;31.40;;;;;;5050592;28;20123;-77
2021/04/27 10:58:02;;;;;;;3.47;1.95;;;20.60;32.90;;;;;;5052594;28;20037;-77
2021/04/27 11:00:36;;;;;;;4.80;2.38;;;20.40;33.40;;;;;;5023962;28;20471;-77
2021/04/27 11:03:24;;;;;;;2.90;2.20;;;21.40;31.30;;;;;;5058676;28;20139;-78
2021/04/27 11:05:51;;;;;;;5.60;2.25;;;20.70;32.80;;;;;;5053689;28;20033;-78
2021/04/27 11:08:40;;;;;;;2.83;2.08;;;21.10;33.30;;;;;;5039301;28;20039;-78
2021/04/27 11:11:30;;;;;;;8.30;2.78;;;20.70;32.20;;;;;;5026013;28;20115;-78
2021/04/27 11:14:23;;;;;;;8.45;2.38;;;20.50;29.60;;;;;;5051967;28;20425;-79
2021/04/27 11:16:54;;;;;;;2.72;1.70;;;20.40;32.60;;;;;;5050105;28;20036;-79
2021/04/27 11:19:19;;;;;;;3.28;1.85;;;22.30;29.70;;;;;;5018010;28;20087;-79
2021/04/27 11:21:48;;;;;;;2.17;1.80;;;22.80;28.70;;;;;;5071596;28;20036;-79
2021/04/27 11:24:37;;;;;;;2.97;2.00;;;23.60;28.40;;;;;;5031511;28;20048;-79
2021/04/27 11:27:02;;;;;;;4.55;1.77;;;24.90;26.90;;;;;;5061825;28;20028;-79
2021/04/27 11:29:29;;;;;;;4.30;2.70;;;24.70;27.70;;;;;;5051876;28;20532;-79
2021/04/27 11:32:00;;;;;;;6.25;2.92;;;25.10;25.30;;;;;;5022665;28;20029;-80
2021/04/27 11:34:26;;;;;;;5.50;1.85;;;24.20;28.60;;;;;;5053796;28;20119;-79
2021/04/27 11:36:52;;;;;;;1.77;1.55;;;25.00;26.90;;;;;;5033940;28;20235;-79
2021/04/27 11:39:22;;;;;;;2.78;2.45;;;25.10;27.10;;;;;;5016453;28;20097;-79
2021/04/27 11:41:50;;;;;;;2.33;2.10;;;23.40;30.00;;;;;;5017386;28;20041;-80
2021/04/27 11:44:16;;;;;;;6.28;2.50;;;22.60;31.40;;;;;;5041014;28;20395;-79
2021/04/27 11:47:19;;;;;;;5.00;2.72;;;22.20;31.40;;;;;;5052607;28;20472;-79
2021/04/27 11:49:54;;;;;;;3.35;2.80;;;22.10;29.60;;;;;;5026225;28;20025;-79
2021/04/27 11:52:42;;;;;;;2.75;2.42;;;22.30;29.20;;;;;;5037416;28;20036;-79
2021/04/27 11:55:20;;;;;;;4.45;2.60;;;22.40;29.70;;;;;;5038303;28;20040;-80
2021/04/27 11:58:09;;;;;;;3.75;2.08;;;23.20;29.10;;;;;;5038581;28;20024;-80
2021/04/27 12:01:16;;;;;;;5.93;2.50;;;22.90;28.50;;;;;;5003036;28;20035;-81
2021/04/27 12:03:43;;;;;;;4.78;2.70;;;23.50;27.10;;;;;;5024473;28;20112;-80
2021/04/27 12:06:16;;;;;;;5.45;1.85;;;22.70;28.60;;;;;;4996625;28;20040;-81
2021/04/27 12:08:46;;;;;;;4.95;1.80;;;22.50;30.30;;;;;;5037196;28;20117;-80
2021/04/27 12:11:23;;;;;;;6.60;2.58;;;23.50;30.30;;;;;;4985999;28;20293;-81
2021/04/27 12:13:55;;;;;;;5.90;2.70;;;24.60;27.40;;;;;;5030474;28;20642;-80
2021/04/27 12:16:34;;;;;;;7.78;3.33;;;23.30;28.40;;;;;;4994329;28;20031;-82
2021/04/27 12:19:05;;;;;;;5.97;3.42;;;22.70;27.90;;;;;;4998181;28;20032;-81
2021/04/27 12:22:03;;;;;;;7.88;3.00;;;22.30;26.90;;;;;;5013845;28;20062;-83
2021/04/27 12:24:29;;;;;;;8.07;3.40;;;22.20;28.00;;;;;;5017722;28;20403;-80
2021/04/27 12:27:06;;;;;;;5.55;2.78;;;22.20;28.60;;;;;;5034206;28;20021;-81
2021/04/27 12:29:42;;;;;;;4.30;2.53;;;22.30;29.00;;;;;;5002312;28;20099;-79
2021/04/27 12:32:15;;;;;;;3.65;2.85;;;23.70;28.00;;;;;;5042908;28;20028;-81
2021/04/27 12:34:54;;;;;;;6.28;3.00;;;23.00;27.60;;;;;;5030323;28;20040;-80
2021/04/27 12:37:20;;;;;;;3.13;2.75;;;22.80;27.20;;;;;;5031190;28;20045;-79
2021/04/27 12:39:45;;;;;;;4.22;3.22;;;22.50;28.40;;;;;;5020420;28;20039;-79
2021/04/27 12:42:19;;;;;;;3.47;3.03;;;22.50;27.20;;;;;;5032341;28;20024;-79
2021/04/27 12:44:53;;;;;;;5.07;2.50;;;22.50;27.90;;;;;;5032638;28;20522;-79
2021/04/27 12:47:29;;;;;;;4.10;2.33;;;22.60;28.90;;;;;;5019182;28;20036;-79
2021/04/27 12:50:03;;;;;;;5.68;3.03;;;23.50;28.80;;;;;;5017502;28;20043;-79
2021/04/27 12:52:30;;;;;;;3.92;3.30;;;22.90;27.40;;;;;;5040326;28;20048;-80